sensor_id;sensor_type;location;lat;lon;timestamp;pressure;altitude;pressure_sealevel;temperature;humidity
59043;BME280;44826;51.596;5.624;2023-07-31T00:02:21;100949.81;;;15.68;100.00
59043;BME280;44826;51.596;5.624;2023-07-31T00:04:46;100950.69;;;15.69;100.00
59043;BME280;44826;51.596;5.624;2023-07-31T00:07:12;100950.69;;;15.69;100.00
59043;BME280;44826;51.596;5.624;2023-07-31T00:09:37;100945.44;;;15.69;100.00
59043;BME280;44826;51.596;5.624;2023-07-31T00:12:03;100948.97;;;15.68;100.00
59043;BME280;44826;51.596;5.624;2023-07-31T00:14:28;100957.63;;;15.70;100.00
59043;BME280;44826;51.596;5.624;2023-07-31T00:16:53;100943.72;;;15.68;100.00
59043;BME280;44826;51.596;5.624;2023-07-31T00:19:19;100946.25;;;15.69;100.00
59043;BME280;44826;51.596;5.624;2023-07-31T00:21:44;100950.69;;;15.69;100.00
59043;BME280;44826;51.596;5.624;2023-07-31T00:24:09;100948.97;;;15.68;100.00
59043;BME280;44826;51.596;5.624;2023-07-31T00:26:35;100934.16;;;15.67;100.00
59043;BME280;44826;51.596;5.624;2023-07-31T00:29:00;100944.66;;;15.67;100.00
59043;BME280;44826;51.596;5.624;2023-07-31T00:31:25;100945.47;;;15.67;100.00
59043;BME280;44826;51.596;5.624;2023-07-31T00:33:51;100946.41;;;15.66;100.00
59043;BME280;44826;51.596;5.624;2023-07-31T00:36:16;100942.84;;;15.67;100.00
59043;BME280;44826;51.596;5.624;2023-07-31T00:38:43;100942.03;;;15.67;100.00
59043;BME280;44826;51.596;5.624;2023-07-31T00:41:08;100936.78;;;15.67;100.00
59043;BME280;44826;51.596;5.624;2023-07-31T00:43:34;100935.06;;;15.66;100.00
59043;BME280;44826;51.596;5.624;2023-07-31T00:45:59;100926.28;;;15.67;100.00
59043;BME280;44826;51.596;5.624;2023-07-31T00:48:25;100937.63;;;15.67;100.00
59043;BME280;44826;51.596;5.624;2023-07-31T00:50:50;100940.31;;;15.66;100.00
59043;BME280;44826;51.596;5.624;2023-07-31T00:53:16;100935.00;;;15.67;100.00
59043;BME280;44826;51.596;5.624;2023-07-31T00:55:42;100935.91;;;15.66;100.00
59043;BME280;44826;51.596;5.624;2023-07-31T00:58:07;100926.34;;;15.65;100.00
59043;BME280;44826;51.596;5.624;2023-07-31T01:00:33;100931.53;;;15.67;100.00
59043;BME280;44826;51.596;5.624;2023-07-31T01:02:58;100923.72;;;15.65;100.00
59043;BME280;44826;51.596;5.624;2023-07-31T01:05:32;100924.59;;;15.66;100.00
59043;BME280;44826;51.596;5.624;2023-07-31T01:08:12;100924.59;;;15.66;100.00
59043;BME280;44826;51.596;5.624;2023-07-31T01:10:47;100915.78;;;15.67;100.00
59043;BME280;44826;51.596;5.624;2023-07-31T01:13:14;100917.56;;;15.66;100.00
59043;BME280;44826;51.596;5.624;2023-07-31T01:15:40;100921.03;;;15.67;100.00
59043;BME280;44826;51.596;5.624;2023-07-31T01:18:05;100915.78;;;15.67;100.00
59043;BME280;44826;51.596;5.624;2023-07-31T01:20:31;100917.50;;;15.68;100.00
59043;BME280;44826;51.596;5.624;2023-07-31T01:23:26;100914.94;;;15.66;100.00
59043;BME280;44826;51.596;5.624;2023-07-31T01:28:46;100915.94;;;15.63;100.00
59043;BME280;44826;51.596;5.624;2023-07-31T01:31:20;100918.56;;;15.63;100.00
59043;BME280;44826;51.596;5.624;2023-07-31T01:33:46;100915.06;;;15.63;99.68
59043;BME280;44826;51.596;5.624;2023-07-31T01:36:12;100920.31;;;15.63;99.99
59043;BME280;44826;51.596;5.624;2023-07-31T01:38:37;100920.31;;;15.63;100.00
59043;BME280;44826;51.596;5.624;2023-07-31T01:41:02;100912.53;;;15.61;100.00
59043;BME280;44826;51.596;5.624;2023-07-31T01:43:27;100921.19;;;15.63;99.37
59043;BME280;44826;51.596;5.624;2023-07-31T01:45:53;100905.44;;;15.63;99.46
59043;BME280;44826;51.596;5.624;2023-07-31T01:48:18;100912.38;;;15.65;99.01
59043;BME280;44826;51.596;5.624;2023-07-31T01:50:44;100911.53;;;15.64;99.05
59043;BME280;44826;51.596;5.624;2023-07-31T01:53:09;100907.16;;;15.65;98.89
59043;BME280;44826;51.596;5.624;2023-07-31T01:55:34;100907.97;;;15.65;98.48
59043;BME280;44826;51.596;5.624;2023-07-31T01:57:59;100911.53;;;15.64;98.62
59043;BME280;44826;51.596;5.624;2023-07-31T02:00:25;100911.53;;;15.64;98.42
59043;BME280;44826;51.596;5.624;2023-07-31T02:02:50;100900.19;;;15.63;98.30
59043;BME280;44826;51.596;5.624;2023-07-31T02:05:15;100903.66;;;15.64;98.40
59043;BME280;44826;51.596;5.624;2023-07-31T02:07:41;100896.78;;;15.61;98.06
59043;BME280;44826;51.596;5.624;2023-07-31T02:10:06;100901.19;;;15.61;97.79
59043;BME280;44826;51.596;5.624;2023-07-31T02:12:31;100901.19;;;15.61;97.60
59043;BME280;44826;51.596;5.624;2023-07-31T02:14:58;100894.16;;;15.61;97.31
59043;BME280;44826;51.596;5.624;2023-07-31T02:17:24;100888.13;;;15.59;97.50
59043;BME280;44826;51.596;5.624;2023-07-31T02:19:49;100889.84;;;15.60;97.56
59043;BME280;44826;51.596;5.624;2023-07-31T02:22:14;100887.22;;;15.60;96.77
59043;BME280;44826;51.596;5.624;2023-07-31T02:24:40;100873.28;;;15.60;96.76
59043;BME280;44826;51.596;5.624;2023-07-31T02:27:05;100870.69;;;15.58;96.66
59043;BME280;44826;51.596;5.624;2023-07-31T02:29:30;100883.03;;;15.56;96.58
59043;BME280;44826;51.596;5.624;2023-07-31T02:31:55;100872.53;;;15.56;96.78
59043;BME280;44826;51.596;5.624;2023-07-31T02:34:21;100875.25;;;15.55;96.79
59043;BME280;44826;51.596;5.624;2023-07-31T02:36:46;100869.13;;;15.54;96.36
59043;BME280;44826;51.596;5.624;2023-07-31T02:39:11;100869.13;;;15.54;96.27
59043;BME280;44826;51.596;5.624;2023-07-31T02:41:37;100864.84;;;15.53;96.08
59043;BME280;44826;51.596;5.624;2023-07-31T02:44:02;100869.31;;;15.51;95.99
59043;BME280;44826;51.596;5.624;2023-07-31T02:46:27;100865.75;;;15.52;96.12
59043;BME280;44826;51.596;5.624;2023-07-31T02:48:53;100856.25;;;15.50;95.88
59043;BME280;44826;51.596;5.624;2023-07-31T02:51:18;100858.81;;;15.51;95.65
59043;BME280;44826;51.596;5.624;2023-07-31T02:53:43;100853.72;;;15.48;95.90
59043;BME280;44826;51.596;5.624;2023-07-31T02:56:08;100856.34;;;15.48;95.39
59043;BME280;44826;51.596;5.624;2023-07-31T02:58:34;100857.25;;;15.47;95.45
59043;BME280;44826;51.596;5.624;2023-07-31T03:00:59;100856.38;;;15.46;95.43
59043;BME280;44826;51.596;5.624;2023-07-31T03:03:24;100861.63;;;15.46;95.24
59043;BME280;44826;51.596;5.624;2023-07-31T03:05:50;100855.53;;;15.46;95.49
59043;BME280;44826;51.596;5.624;2023-07-31T03:08:15;100854.72;;;15.45;95.47
59043;BME280;44826;51.596;5.624;2023-07-31T03:10:40;100849.47;;;15.45;95.00
59043;BME280;44826;51.596;5.624;2023-07-31T03:13:06;100848.59;;;15.45;95.20
59043;BME280;44826;51.596;5.624;2023-07-31T03:15:31;100844.28;;;15.44;95.14
59043;BME280;44826;51.596;5.624;2023-07-31T03:17:56;100854.72;;;15.45;95.03
59043;BME280;44826;51.596;5.624;2023-07-31T03:20:22;100859.16;;;15.43;95.49
59043;BME280;44826;51.596;5.624;2023-07-31T03:22:47;100846.06;;;15.43;95.03
59043;BME280;44826;51.596;5.624;2023-07-31T03:25:12;100860.00;;;15.44;95.12
59043;BME280;44826;51.596;5.624;2023-07-31T03:27:39;100860.09;;;15.42;94.79
59043;BME280;44826;51.596;5.624;2023-07-31T03:30:05;100847.91;;;15.41;95.06
59043;BME280;44826;51.596;5.624;2023-07-31T03:32:30;100857.47;;;15.42;95.11
59043;BME280;44826;51.596;5.624;2023-07-31T03:34:55;100845.19;;;15.43;95.01
59043;BME280;44826;51.596;5.624;2023-07-31T03:37:21;100850.44;;;15.43;95.50
59043;BME280;44826;51.596;5.624;2023-07-31T03:39:46;100844.28;;;15.44;95.14
59043;BME280;44826;51.596;5.624;2023-07-31T03:42:11;100832.88;;;15.45;94.82
59043;BME280;44826;51.596;5.624;2023-07-31T03:44:37;100830.25;;;15.45;94.52
59043;BME280;44826;51.596;5.624;2023-07-31T03:47:02;100820.69;;;15.44;94.99
59043;BME280;44826;51.596;5.624;2023-07-31T03:49:27;100816.31;;;15.44;95.03
59043;BME280;44826;51.596;5.624;2023-07-31T03:51:53;100823.25;;;15.45;94.95
59043;BME280;44826;51.596;5.624;2023-07-31T03:54:19;100812.75;;;15.45;95.01
59043;BME280;44826;51.596;5.624;2023-07-31T03:56:44;100815.31;;;15.47;95.22
59043;BME280;44826;51.596;5.624;2023-07-31T03:59:09;100814.44;;;15.46;95.23
59043;BME280;44826;51.596;5.624;2023-07-31T04:01:34;100812.59;;;15.48;95.43
59043;BME280;44826;51.596;5.624;2023-07-31T04:04:00;100808.22;;;15.49;95.09
59043;BME280;44826;51.596;5.624;2023-07-31T04:06:25;100818.63;;;15.51;95.04
59043;BME280;44826;51.596;5.624;2023-07-31T04:08:50;100801.97;;;15.52;94.88
59043;BME280;44826;51.596;5.624;2023-07-31T04:11:15;100807.16;;;15.53;95.26
59043;BME280;44826;51.596;5.624;2023-07-31T04:13:41;100808.00;;;15.54;95.16
59043;BME280;44826;51.596;5.624;2023-07-31T04:16:06;100805.28;;;15.55;95.10
59043;BME280;44826;51.596;5.624;2023-07-31T04:18:31;100795.56;;;15.57;95.23
59043;BME280;44826;51.596;5.624;2023-07-31T04:20:57;100797.28;;;15.58;95.60
59043;BME280;44826;51.596;5.624;2023-07-31T04:23:27;100796.34;;;15.59;95.69
59043;BME280;44826;51.596;5.624;2023-07-31T04:25:52;100799.84;;;15.60;95.98
59043;BME280;44826;51.596;5.624;2023-07-31T04:28:18;100789.34;;;15.60;96.03
59043;BME280;44826;51.596;5.624;2023-07-31T04:30:43;100800.69;;;15.60;96.04
59043;BME280;44826;51.596;5.624;2023-07-31T04:33:08;100792.81;;;15.60;96.39
59043;BME280;44826;51.596;5.624;2023-07-31T04:35:34;100791.81;;;15.63;96.31
59043;BME280;44826;51.596;5.624;2023-07-31T04:37:59;100790.06;;;15.63;96.58
59043;BME280;44826;51.596;5.624;2023-07-31T04:40:24;100788.22;;;15.66;96.19
59043;BME280;44826;51.596;5.624;2023-07-31T04:42:49;100788.22;;;15.66;96.99
59043;BME280;44826;51.596;5.624;2023-07-31T04:45:15;100791.63;;;15.68;96.91
59043;BME280;44826;51.596;5.624;2023-07-31T04:47:40;100781.13;;;15.68;97.19
59043;BME280;44826;51.596;5.624;2023-07-31T04:50:06;100777.56;;;15.69;97.22
59043;BME280;44826;51.596;5.624;2023-07-31T04:52:31;100766.16;;;15.70;97.19
59043;BME280;44826;51.596;5.624;2023-07-31T04:54:57;100770.50;;;15.71;97.55
59043;BME280;44826;51.596;5.624;2023-07-31T04:57:22;100775.66;;;15.72;97.20
59043;BME280;44826;51.596;5.624;2023-07-31T04:59:47;100773.84;;;15.73;97.12
59043;BME280;44826;51.596;5.624;2023-07-31T05:02:12;100758.91;;;15.75;97.35
59043;BME280;44826;51.596;5.624;2023-07-31T05:04:38;100762.44;;;15.74;97.54
59043;BME280;44826;51.596;5.624;2023-07-31T05:07:04;100753.59;;;15.76;97.70
59043;BME280;44826;51.596;5.624;2023-07-31T05:09:29;100750.06;;;15.77;97.84
59043;BME280;44826;51.596;5.624;2023-07-31T05:11:54;100751.66;;;15.80;98.20
59043;BME280;44826;51.596;5.624;2023-07-31T05:14:20;100748.22;;;15.80;97.82
59043;BME280;44826;51.596;5.624;2023-07-31T05:16:45;100754.28;;;15.80;98.10
59043;BME280;44826;51.596;5.624;2023-07-31T05:19:10;100753.38;;;15.81;97.79
59043;BME280;44826;51.596;5.624;2023-07-31T05:21:36;100739.25;;;15.84;97.96
59043;BME280;44826;51.596;5.624;2023-07-31T05:24:01;100740.94;;;15.85;98.04
59043;BME280;44826;51.596;5.624;2023-07-31T05:26:27;100741.84;;;15.85;99.10
59043;BME280;44826;51.596;5.624;2023-07-31T05:28:52;100739.22;;;15.85;98.88
59043;BME280;44826;51.596;5.624;2023-07-31T05:31:17;100733.16;;;15.83;99.05
59043;BME280;44826;51.596;5.624;2023-07-31T05:33:42;100741.84;;;15.84;99.27
59043;BME280;44826;51.596;5.624;2023-07-31T05:36:08;100737.53;;;15.83;99.73
59043;BME280;44826;51.596;5.624;2023-07-31T05:38:33;100734.91;;;15.83;99.63
59043;BME280;44826;51.596;5.624;2023-07-31T05:40:59;100741.94;;;15.82;100.00
59043;BME280;44826;51.596;5.624;2023-07-31T05:43:24;100732.47;;;15.80;100.00
59043;BME280;44826;51.596;5.624;2023-07-31T05:45:51;100733.31;;;15.80;100.00
59043;BME280;44826;51.596;5.624;2023-07-31T05:48:16;100735.09;;;15.80;100.00
59043;BME280;44826;51.596;5.624;2023-07-31T05:50:43;100732.53;;;15.78;100.00
59043;BME280;44826;51.596;5.624;2023-07-31T05:53:08;100732.63;;;15.76;100.00
59043;BME280;44826;51.596;5.624;2023-07-31T05:55:33;100722.13;;;15.76;100.00
59043;BME280;44826;51.596;5.624;2023-07-31T05:57:59;100718.63;;;15.76;100.00
59043;BME280;44826;51.596;5.624;2023-07-31T06:00:24;100710.16;;;15.71;100.00
59043;BME280;44826;51.596;5.624;2023-07-31T06:02:50;100706.78;;;15.69;100.00
59043;BME280;44826;51.596;5.624;2023-07-31T06:05:15;100693.81;;;15.66;100.00
59043;BME280;44826;51.596;5.624;2023-07-31T06:07:40;100700.03;;;15.63;100.00
59043;BME280;44826;51.596;5.624;2023-07-31T06:10:06;100706.28;;;15.60;100.00
59043;BME280;44826;51.596;5.624;2023-07-31T06:12:32;100700.19;;;15.60;100.00
59043;BME280;44826;51.596;5.624;2023-07-31T06:14:58;100705.50;;;15.58;100.00
59043;BME280;44826;51.596;5.624;2023-07-31T06:17:23;100704.56;;;15.59;100.00
59043;BME280;44826;51.596;5.624;2023-07-31T06:19:49;100697.63;;;15.58;100.00
59043;BME280;44826;51.596;5.624;2023-07-31T06:22:14;100702.88;;;15.58;100.00
59043;BME280;44826;51.596;5.624;2023-07-31T06:24:40;100698.56;;;15.57;100.00
59043;BME280;44826;51.596;5.624;2023-07-31T06:27:06;100701.19;;;15.57;100.00
59043;BME280;44826;51.596;5.624;2023-07-31T06:29:31;100707.28;;;15.58;100.00
59043;BME280;44826;51.596;5.624;2023-07-31T06:31:56;100704.56;;;15.59;100.00
59043;BME280;44826;51.596;5.624;2023-07-31T06:34:22;100696.66;;;15.61;100.00
59043;BME280;44826;51.596;5.624;2023-07-31T06:36:47;100689.53;;;15.63;100.00
59043;BME280;44826;51.596;5.624;2023-07-31T06:39:12;100693.81;;;15.66;100.00
59043;BME280;44826;51.596;5.624;2023-07-31T06:41:38;100687.63;;;15.67;100.00
59043;BME280;44826;51.596;5.624;2023-07-31T06:44:04;100685.84;;;15.67;100.00
59043;BME280;44826;51.596;5.624;2023-07-31T06:46:29;100679.63;;;15.70;100.00
59043;BME280;44826;51.596;5.624;2023-07-31T06:48:54;100681.31;;;15.71;100.00
59043;BME280;44826;51.596;5.624;2023-07-31T06:51:20;100679.53;;;15.71;100.00
59043;BME280;44826;51.596;5.624;2023-07-31T06:53:45;100667.25;;;15.72;100.00
59043;BME280;44826;51.596;5.624;2023-07-31T06:56:10;100671.66;;;15.71;100.00
59043;BME280;44826;51.596;5.624;2023-07-31T06:58:36;100674.19;;;15.73;100.00
59043;BME280;44826;51.596;5.624;2023-07-31T07:01:01;100662.78;;;15.74;100.00
59043;BME280;44826;51.596;5.624;2023-07-31T07:03:27;100661.94;;;15.73;100.00
59043;BME280;44826;51.596;5.624;2023-07-31T07:05:52;100661.03;;;15.74;100.00
59043;BME280;44826;51.596;5.624;2023-07-31T07:08:18;100662.78;;;15.74;100.00
59043;BME280;44826;51.596;5.624;2023-07-31T07:10:43;100659.22;;;15.75;100.00
59043;BME280;44826;51.596;5.624;2023-07-31T07:13:08;100661.84;;;15.75;100.00
59043;BME280;44826;51.596;5.624;2023-07-31T07:15:34;100656.59;;;15.75;100.00
59043;BME280;44826;51.596;5.624;2023-07-31T07:17:59;100650.44;;;15.76;100.00
59043;BME280;44826;51.596;5.624;2023-07-31T07:20:25;100651.16;;;15.80;100.00
59043;BME280;44826;51.596;5.624;2023-07-31T07:22:50;100651.84;;;15.83;100.00
59043;BME280;44826;51.596;5.624;2023-07-31T07:25:15;100651.72;;;15.86;100.00
59043;BME280;44826;51.596;5.624;2023-07-31T07:27:41;100652.50;;;15.88;100.00
59043;BME280;44826;51.596;5.624;2023-07-31T07:30:06;100638.41;;;15.89;100.00
59043;BME280;44826;51.596;5.624;2023-07-31T07:32:32;100644.44;;;15.91;100.00
59043;BME280;44826;51.596;5.624;2023-07-31T07:34:57;100652.16;;;15.95;100.00
59043;BME280;44826;51.596;5.624;2023-07-31T07:37:22;100646.91;;;15.95;100.00
59043;BME280;44826;51.596;5.624;2023-07-31T07:39:48;100645.16;;;15.95;100.00
59043;BME280;44826;51.596;5.624;2023-07-31T07:42:13;100657.41;;;15.95;100.00
59043;BME280;44826;51.596;5.624;2023-07-31T07:44:38;100655.72;;;15.93;100.00
59043;BME280;44826;51.596;5.624;2023-07-31T07:47:05;100660.13;;;15.93;100.00
59043;BME280;44826;51.596;5.624;2023-07-31T07:49:34;100654.00;;;15.92;100.00
59043;BME280;44826;51.596;5.624;2023-07-31T07:52:00;100651.53;;;15.89;100.00
59043;BME280;44826;51.596;5.624;2023-07-31T07:54:26;100654.16;;;15.89;100.00
59043;BME280;44826;51.596;5.624;2023-07-31T07:56:51;100651.53;;;15.89;100.00
59043;BME280;44826;51.596;5.624;2023-07-31T07:59:16;100639.44;;;15.87;100.00
59043;BME280;44826;51.596;5.624;2023-07-31T08:01:42;100649.09;;;15.86;100.00
59043;BME280;44826;51.596;5.624;2023-07-31T08:04:07;100649.09;;;15.86;100.00
59043;BME280;44826;51.596;5.624;2023-07-31T08:06:32;100642.00;;;15.88;100.00
59043;BME280;44826;51.596;5.624;2023-07-31T08:08:57;100649.78;;;15.90;100.00
59043;BME280;44826;51.596;5.624;2023-07-31T08:11:23;100644.38;;;15.93;100.00
59043;BME280;44826;51.596;5.624;2023-07-31T08:13:49;100645.22;;;15.93;100.00
59043;BME280;44826;51.596;5.624;2023-07-31T08:16:14;100639.19;;;15.91;100.00
59043;BME280;44826;51.596;5.624;2023-07-31T08:18:39;100640.88;;;15.92;100.00
59043;BME280;44826;51.596;5.624;2023-07-31T08:21:05;100645.22;;;15.93;100.00
59043;BME280;44826;51.596;5.624;2023-07-31T08:23:31;100643.44;;;15.94;100.00
59043;BME280;44826;51.596;5.624;2023-07-31T08:25:56;100636.34;;;15.96;100.00
59043;BME280;44826;51.596;5.624;2023-07-31T08:28:21;100641.50;;;15.98;100.00
59043;BME280;44826;51.596;5.624;2023-07-31T08:30:47;100626.53;;;16.00;100.00
59043;BME280;44826;51.596;5.624;2023-07-31T08:33:12;100639.56;;;16.01;100.00
59043;BME280;44826;51.596;5.624;2023-07-31T08:35:37;100643.06;;;16.02;100.00
59043;BME280;44826;51.596;5.624;2023-07-31T08:38:03;100637.81;;;16.02;100.00
59043;BME280;44826;51.596;5.624;2023-07-31T08:40:28;100634.25;;;16.03;100.00
59043;BME280;44826;51.596;5.624;2023-07-31T08:42:55;100634.25;;;16.03;100.00
59043;BME280;44826;51.596;5.624;2023-07-31T08:45:21;100636.69;;;16.06;100.00
59043;BME280;44826;51.596;5.624;2023-07-31T08:47:51;100634.06;;;16.06;100.00
59043;BME280;44826;51.596;5.624;2023-07-31T08:50:19;100632.41;;;16.05;100.00
59043;BME280;44826;51.596;5.624;2023-07-31T08:52:46;100639.50;;;16.03;100.00
59043;BME280;44826;51.596;5.624;2023-07-31T08:55:12;100645.59;;;16.03;100.00
59043;BME280;44826;51.596;5.624;2023-07-31T08:57:38;100635.09;;;16.03;100.00
59043;BME280;44826;51.596;5.624;2023-07-31T09:00:05;100632.41;;;16.05;100.00
59043;BME280;44826;51.596;5.624;2023-07-31T09:02:38;100637.56;;;16.06;100.00
59043;BME280;44826;51.596;5.624;2023-07-31T09:05:06;100639.31;;;16.06;100.00
59043;BME280;44826;51.596;5.624;2023-07-31T09:07:34;100639.31;;;16.06;100.00
59043;BME280;44826;51.596;5.624;2023-07-31T09:10:01;100641.03;;;16.07;100.00
59043;BME280;44826;51.596;5.624;2023-07-31T09:12:27;100629.69;;;16.06;100.00
59043;BME280;44826;51.596;5.624;2023-07-31T09:14:53;100639.31;;;16.06;100.00
59043;BME280;44826;51.596;5.624;2023-07-31T09:17:35;100631.44;;;16.06;100.00
59043;BME280;44826;51.596;5.624;2023-07-31T09:20:20;100633.09;;;16.08;100.00
59043;BME280;44826;51.596;5.624;2023-07-31T09:22:48;100623.41;;;16.09;100.00
59043;BME280;44826;51.596;5.624;2023-07-31T09:25:25;100608.59;;;16.08;100.00
59043;BME280;44826;51.596;5.624;2023-07-31T09:27:58;100621.56;;;16.11;100.00
59043;BME280;44826;51.596;5.624;2023-07-31T09:30:24;100621.41;;;16.14;100.00
59043;BME280;44826;51.596;5.624;2023-07-31T09:32:51;100613.38;;;16.17;100.00
59043;BME280;44826;51.596;5.624;2023-07-31T09:35:22;100614.72;;;16.24;100.00
59043;BME280;44826;51.596;5.624;2023-07-31T09:37:51;100604.84;;;16.30;100.00
59043;BME280;44826;51.596;5.624;2023-07-31T09:40:26;100609.06;;;16.32;100.00
59043;BME280;44826;51.596;5.624;2023-07-31T09:42:53;100599.44;;;16.33;100.00
59043;BME280;44826;51.596;5.624;2023-07-31T09:45:19;100601.97;;;16.34;100.00
59043;BME280;44826;51.596;5.624;2023-07-31T09:47:47;100600.88;;;16.38;100.00
59043;BME280;44826;51.596;5.624;2023-07-31T09:50:16;100613.84;;;16.42;100.00
59043;BME280;44826;51.596;5.624;2023-07-31T09:52:42;100604.00;;;16.45;100.00
59043;BME280;44826;51.596;5.624;2023-07-31T09:55:08;100609.94;;;16.49;100.00
59043;BME280;44826;51.596;5.624;2023-07-31T09:57:34;100606.06;;;16.56;100.00
59043;BME280;44826;51.596;5.624;2023-07-31T09:59:59;100605.03;;;16.59;100.00
59043;BME280;44826;51.596;5.624;2023-07-31T10:02:26;100612.91;;;16.59;100.00
59043;BME280;44826;51.596;5.624;2023-07-31T10:04:55;100603.28;;;16.59;100.00
59043;BME280;44826;51.596;5.624;2023-07-31T10:07:25;100606.50;;;16.64;100.00
59043;BME280;44826;51.596;5.624;2023-07-31T10:09:51;100600.88;;;16.71;100.00
59043;BME280;44826;51.596;5.624;2023-07-31T10:12:19;100604.94;;;16.76;100.00
59043;BME280;44826;51.596;5.624;2023-07-31T10:14:44;100603.19;;;16.77;100.00
59043;BME280;44826;51.596;5.624;2023-07-31T10:17:10;100597.00;;;16.78;100.00
59043;BME280;44826;51.596;5.624;2023-07-31T10:19:36;100610.97;;;16.78;100.00
59043;BME280;44826;51.596;5.624;2023-07-31T10:22:02;100608.34;;;16.78;100.00
59043;BME280;44826;51.596;5.624;2023-07-31T10:24:29;100603.09;;;16.78;100.00
59043;BME280;44826;51.596;5.624;2023-07-31T10:26:57;100603.69;;;16.83;100.00
59043;BME280;44826;51.596;5.624;2023-07-31T10:29:24;100596.19;;;16.92;100.00
59043;BME280;44826;51.596;5.624;2023-07-31T10:31:50;100593.09;;;17.01;100.00
59043;BME280;44826;51.596;5.624;2023-07-31T10:34:16;100590.31;;;17.04;100.00
59043;BME280;44826;51.596;5.624;2023-07-31T10:36:42;100592.00;;;17.05;100.00
59043;BME280;44826;51.596;5.624;2023-07-31T10:39:33;100598.94;;;17.06;100.00
59043;BME280;44826;51.596;5.624;2023-07-31T10:41:59;100596.31;;;17.06;100.00
59043;BME280;44826;51.596;5.624;2023-07-31T10:44:24;100594.53;;;17.07;100.00
59043;BME280;44826;51.596;5.624;2023-07-31T10:46:49;100594.44;;;17.08;100.00
59043;BME280;44826;51.596;5.624;2023-07-31T10:49:20;100591.63;;;17.11;100.00
59043;BME280;44826;51.596;5.624;2023-07-31T10:51:47;100585.38;;;17.14;100.00
59043;BME280;44826;51.596;5.624;2023-07-31T10:54:14;100588.75;;;17.16;100.00
59043;BME280;44826;51.596;5.624;2023-07-31T10:56:44;100590.25;;;17.20;100.00
59043;BME280;44826;51.596;5.624;2023-07-31T10:59:09;100591.88;;;17.23;100.00
59043;BME280;44826;51.596;5.624;2023-07-31T11:01:54;100592.53;;;17.26;100.00
59043;BME280;44826;51.596;5.624;2023-07-31T11:04:23;100595.16;;;17.26;100.00
59043;BME280;44826;51.596;5.624;2023-07-31T11:07:00;100587.28;;;17.26;100.00
59043;BME280;44826;51.596;5.624;2023-07-31T11:09:30;100590.66;;;17.28;100.00
59043;BME280;44826;51.596;5.624;2023-07-31T11:11:56;100590.41;;;17.33;100.00
59043;BME280;44826;51.596;5.624;2023-07-31T11:14:21;100584.97;;;17.36;100.00
59043;BME280;44826;51.596;5.624;2023-07-31T11:16:50;100579.44;;;17.41;100.00
59043;BME280;44826;51.596;5.624;2023-07-31T11:19:24;100587.97;;;17.44;98.87
59043;BME280;44826;51.596;5.624;2023-07-31T11:21:51;100580.84;;;17.47;99.06
59043;BME280;44826;51.596;5.624;2023-07-31T11:24:17;100578.63;;;17.55;99.53
59043;BME280;44826;51.596;5.624;2023-07-31T11:26:52;100580.69;;;17.64;97.91
59043;BME280;44826;51.596;5.624;2023-07-31T11:29:18;100585.00;;;17.65;97.92
59043;BME280;44826;51.596;5.624;2023-07-31T11:31:44;100591.78;;;17.69;97.53
59043;BME280;44826;51.596;5.624;2023-07-31T11:34:10;100587.19;;;17.73;98.28
59043;BME280;44826;51.596;5.624;2023-07-31T11:36:35;100578.28;;;17.75;96.60
59043;BME280;44826;51.596;5.624;2023-07-31T11:39:08;100590.41;;;17.78;97.62
59043;BME280;44826;51.596;5.624;2023-07-31T11:41:33;100572.75;;;17.80;98.51
59043;BME280;44826;51.596;5.624;2023-07-31T11:43:59;100563.97;;;17.80;96.80
59043;BME280;44826;51.596;5.624;2023-07-31T11:46:25;100589.19;;;17.84;97.47
59043;BME280;44826;51.596;5.624;2023-07-31T11:48:50;100565.13;;;17.90;96.66
59043;BME280;44826;51.596;5.624;2023-07-31T11:51:16;100563.91;;;17.96;96.71
59043;BME280;44826;51.596;5.624;2023-07-31T11:53:48;100553.97;;;18.01;95.81
59043;BME280;44826;51.596;5.624;2023-07-31T11:56:18;100554.63;;;18.04;96.15
59043;BME280;44826;51.596;5.624;2023-07-31T11:58:46;100573.81;;;18.07;94.93
59043;BME280;44826;51.596;5.624;2023-07-31T12:01:14;100556.50;;;18.02;94.61
59043;BME280;44826;51.596;5.624;2023-07-31T12:03:41;100559.25;;;18.01;95.13
59043;BME280;44826;51.596;5.624;2023-07-31T12:06:07;100556.59;;;18.01;95.73
59043;BME280;44826;51.596;5.624;2023-07-31T12:08:33;100554.81;;;18.01;96.51
59043;BME280;44826;51.596;5.624;2023-07-31T12:11:03;100556.50;;;18.02;95.39
59043;BME280;44826;51.596;5.624;2023-07-31T12:13:31;100570.59;;;18.01;95.14
59043;BME280;44826;51.596;5.624;2023-07-31T12:15:57;100564.28;;;18.04;95.34
59043;BME280;44826;51.596;5.624;2023-07-31T12:18:25;100569.38;;;18.07;95.55
59043;BME280;44826;51.596;5.624;2023-07-31T12:20:58;100564.97;;;18.08;95.16
59043;BME280;44826;51.596;5.624;2023-07-31T12:23:27;100567.69;;;18.06;94.99
59043;BME280;44826;51.596;5.624;2023-07-31T12:26:13;100574.00;;;18.03;95.92
59043;BME280;44826;51.596;5.624;2023-07-31T12:28:46;100568.06;;;18.00;95.61
59043;BME280;44826;51.596;5.624;2023-07-31T12:31:14;100558.53;;;17.97;96.29
59043;BME280;44826;51.596;5.624;2023-07-31T12:33:40;100553.28;;;17.97;96.65
59043;BME280;44826;51.596;5.624;2023-07-31T12:36:14;100547.03;;;18.00;96.80
59043;BME280;44826;51.596;5.624;2023-07-31T12:38:40;100558.38;;;18.00;95.77
59043;BME280;44826;51.596;5.624;2023-07-31T12:41:06;100549.72;;;17.98;96.58
59043;BME280;44826;51.596;5.624;2023-07-31T12:43:32;100548.19;;;17.94;96.25
59043;BME280;44826;51.596;5.624;2023-07-31T12:45:57;100540.41;;;17.93;97.02